Time;durP1;ratioP1;P1;durP2;ratioP2;P2;SDS_P1;SDS_P2;PMS_P1;PMS_P2;Temp;Humidity;BMP_temperature;BMP_pressure;BME280_temperature;BME280_humidity;BME280_pressure;Samples;Min_cycle;Max_cycle;Signal;HPM_P1;HPM_P2
2023/12/12 00:00:29;;;;;;;13.77;3.33;;;;;;;;;;4998413;28;20041;-54
2023/12/12 00:02:55;;;;;;;18.13;3.92;;;;;;;;;;4995075;28;20117;-53
2023/12/12 00:05:21;;;;;;;15.93;3.53;;;;;;;;;;4999524;28;20129;-54
2023/12/12 00:07:47;;;;;;;15.27;3.85;;;;;;;;;;5001001;28;20120;-54
2023/12/12 00:10:13;;;;;;;14.73;4.18;;;;;;;;;;4998946;28;20030;-54
2023/12/12 00:12:39;;;;;;;21.25;4.07;;;;;;;;;;4999062;28;20120;-55
2023/12/12 00:15:05;;;;;;;14.25;4.30;;;;;;;;;;4997795;28;20034;-54
2023/12/12 00:17:31;;;;;;;15.95;3.95;;;;;;;;;;5000360;28;20049;-56
2023/12/12 00:19:57;;;;;;;16.17;4.65;;;;;;;;;;5000318;28;20041;-56
2023/12/12 00:22:23;;;;;;;20.77;4.00;;;;;;;;;;4999770;28;20038;-56
2023/12/12 00:24:49;;;;;;;15.07;3.75;;;;;;;;;;5000128;28;20528;-55
2023/12/12 00:27:15;;;;;;;19.20;4.00;;;;;;;;;;4999713;28;20389;-54
2023/12/12 00:29:41;;;;;;;19.38;4.47;;;;;;;;;;4999538;28;20038;-55
2023/12/12 00:32:07;;;;;;;18.95;4.35;;;;;;;;;;4998348;28;20053;-54
2023/12/12 00:34:37;;;;;;;19.23;4.13;;;;;;;;;;5000057;28;20717;-54
2023/12/12 00:37:03;;;;;;;21.17;4.70;;;;;;;;;;4999563;28;20058;-54
2023/12/12 00:39:29;;;;;;;14.68;4.13;;;;;;;;;;5000171;28;20042;-55
2023/12/12 00:41:55;;;;;;;14.98;4.45;;;;;;;;;;5000261;28;20030;-55
2023/12/12 00:44:21;;;;;;;19.50;4.60;;;;;;;;;;4998668;28;20544;-56
2023/12/12 00:46:47;;;;;;;21.73;5.13;;;;;;;;;;4999819;28;20067;-53
2023/12/12 00:49:12;;;;;;;21.55;4.70;;;;;;;;;;4998557;28;20040;-54
2023/12/12 00:51:38;;;;;;;17.67;4.20;;;;;;;;;;5000536;28;20529;-56
2023/12/12 00:54:05;;;;;;;20.00;5.38;;;;;;;;;;4997730;28;20040;-56
2023/12/12 00:56:31;;;;;;;24.23;5.35;;;;;;;;;;4997087;28;20346;-55
2023/12/12 00:58:57;;;;;;;21.05;5.45;;;;;;;;;;4997209;28;20040;-55
2023/12/12 01:01:23;;;;;;;22.88;4.90;;;;;;;;;;4997519;28;20045;-56
2023/12/12 01:03:49;;;;;;;21.17;4.55;;;;;;;;;;4997212;28;20042;-56
2023/12/12 01:06:22;;;;;;;16.50;4.72;;;;;;;;;;4998703;28;20069;-55
2023/12/12 01:08:48;;;;;;;;;;;;;;;;;;5003221;28;20120;-56
2023/12/12 01:11:14;;;;;;;22.88;5.15;;;;;;;;;;4998476;28;19992;-56
2023/12/12 01:13:40;;;;;;;26.05;5.10;;;;;;;;;;4999745;28;20053;-55
2023/12/12 01:16:06;;;;;;;26.90;5.63;;;;;;;;;;4996785;28;20040;-56
2023/12/12 01:18:32;;;;;;;21.48;4.80;;;;;;;;;;5000743;28;20525;-57
2023/12/12 01:20:58;;;;;;;18.70;4.40;;;;;;;;;;4999937;28;20042;-55
2023/12/12 01:23:24;;;;;;;18.27;4.43;;;;;;;;;;4998151;28;20135;-56
2023/12/12 01:25:50;;;;;;;26.23;4.90;;;;;;;;;;4996814;28;20049;-54
2023/12/12 01:28:16;;;;;;;17.63;4.75;;;;;;;;;;4997433;28;20671;-56
2023/12/12 01:30:42;;;;;;;16.48;5.18;;;;;;;;;;4996178;28;20048;-56
2023/12/12 01:33:08;;;;;;;25.38;5.43;;;;;;;;;;4997974;28;20034;-55
2023/12/12 01:35:34;;;;;;;19.35;4.60;;;;;;;;;;4998803;28;20041;-55
2023/12/12 01:38:00;;;;;;;15.60;4.97;;;;;;;;;;4999024;28;20044;-55
2023/12/12 01:40:25;;;;;;;21.85;4.57;;;;;;;;;;4995223;28;20128;-55
2023/12/12 01:42:51;;;;;;;18.27;4.05;;;;;;;;;;4997968;28;20038;-56
2023/12/12 01:45:17;;;;;;;14.15;4.15;;;;;;;;;;4995817;28;20088;-55
2023/12/12 01:47:43;;;;;;;20.40;4.40;;;;;;;;;;4999672;28;20045;-55
2023/12/12 01:50:09;;;;;;;17.83;4.57;;;;;;;;;;4996281;28;20038;-55
2023/12/12 01:52:36;;;;;;;20.10;4.70;;;;;;;;;;4990892;28;20461;-55
2023/12/12 01:55:02;;;;;;;21.60;4.47;;;;;;;;;;4992168;28;20497;-54
2023/12/12 01:57:28;;;;;;;16.35;4.57;;;;;;;;;;4992246;28;20127;-55
2023/12/12 01:59:54;;;;;;;23.77;4.90;;;;;;;;;;4998990;28;20673;-55
2023/12/12 02:02:20;;;;;;;18.15;5.25;;;;;;;;;;4999281;28;20049;-54
2023/12/12 02:04:47;;;;;;;23.63;4.45;;;;;;;;;;4997959;28;20663;-54
2023/12/12 02:07:13;;;;;;;19.70;4.32;;;;;;;;;;4997680;28;20117;-53
2023/12/12 02:09:39;;;;;;;22.45;4.53;;;;;;;;;;4998042;28;20144;-53
2023/12/12 02:12:05;;;;;;;16.50;4.00;;;;;;;;;;4997608;28;20084;-55
2023/12/12 02:14:33;;;;;;;21.38;4.53;;;;;;;;;;4995862;28;20049;-54
2023/12/12 02:16:59;;;;;;;20.15;3.90;;;;;;;;;;4998649;28;20037;-55
2023/12/12 02:19:25;;;;;;;17.17;4.38;;;;;;;;;;4993010;28;20651;-53
2023/12/12 02:21:51;;;;;;;13.38;3.95;;;;;;;;;;4998496;28;20048;-57
2023/12/12 02:24:17;;;;;;;19.27;4.40;;;;;;;;;;4995408;28;20073;-55
2023/12/12 02:26:43;;;;;;;22.52;4.72;;;;;;;;;;4998824;28;20100;-56
2023/12/12 02:29:09;;;;;;;24.75;4.72;;;;;;;;;;4996580;28;20038;-56
2023/12/12 02:31:35;;;;;;;22.67;4.80;;;;;;;;;;4996641;28;20401;-55
2023/12/12 02:34:01;;;;;;;26.05;5.13;;;;;;;;;;4997859;28;20215;-54
2023/12/12 02:36:27;;;;;;;23.08;4.70;;;;;;;;;;4996880;28;20041;-54
2023/12/12 02:38:53;;;;;;;31.75;5.20;;;;;;;;;;4997869;28;20378;-55
2023/12/12 02:41:19;;;;;;;24.00;4.88;;;;;;;;;;4997224;28;20084;-54
2023/12/12 02:43:45;;;;;;;24.77;5.72;;;;;;;;;;4997830;28;20046;-55
2023/12/12 02:46:11;;;;;;;24.45;4.45;;;;;;;;;;4991540;28;20042;-55
2023/12/12 02:48:37;;;;;;;29.33;4.90;;;;;;;;;;4998081;28;20123;-55
2023/12/12 02:51:03;;;;;;;24.52;4.53;;;;;;;;;;4996282;28;20038;-56
2023/12/12 02:53:29;;;;;;;33.63;5.25;;;;;;;;;;4997886;28;20115;-55
2023/12/12 02:55:55;;;;;;;23.00;4.75;;;;;;;;;;4997854;28;20037;-57
2023/12/12 02:58:21;;;;;;;30.05;5.07;;;;;;;;;;4993652;28;20424;-56
2023/12/12 03:00:47;;;;;;;32.97;5.95;;;;;;;;;;4997098;28;20052;-55
2023/12/12 03:03:13;;;;;;;33.80;6.13;;;;;;;;;;4996798;28;20124;-56
2023/12/12 03:05:38;;;;;;;40.63;5.90;;;;;;;;;;4997722;28;20034;-56
2023/12/12 03:08:04;;;;;;;30.13;5.50;;;;;;;;;;5000878;28;20347;-53
2023/12/12 03:10:30;;;;;;;35.78;5.72;;;;;;;;;;4996428;28;20530;-56
2023/12/12 03:12:56;;;;;;;34.55;5.32;;;;;;;;;;4998314;28;20347;-55
2023/12/12 03:15:22;;;;;;;41.13;5.70;;;;;;;;;;4994788;28;20108;-56
2023/12/12 03:17:48;;;;;;;48.40;5.78;;;;;;;;;;4997076;28;20154;-56
2023/12/12 03:20:14;;;;;;;43.22;6.57;;;;;;;;;;4994940;28;20041;-56
2023/12/12 03:22:40;;;;;;;38.20;5.32;;;;;;;;;;4996418;28;20038;-57
2023/12/12 03:25:07;;;;;;;46.08;6.60;;;;;;;;;;4995498;28;20450;-56
2023/12/12 03:27:34;;;;;;;40.35;6.10;;;;;;;;;;4997261;28;20472;-56
2023/12/12 03:30:00;;;;;;;45.38;6.30;;;;;;;;;;4995377;28;20362;-56
2023/12/12 03:32:26;;;;;;;45.00;5.93;;;;;;;;;;4992021;28;20099;-55
2023/12/12 03:34:52;;;;;;;42.13;7.07;;;;;;;;;;4996476;28;20042;-55
2023/12/12 03:37:18;;;;;;;38.70;6.55;;;;;;;;;;4994513;28;20030;-56
2023/12/12 03:39:44;;;;;;;35.50;6.07;;;;;;;;;;4996644;28;20096;-54
2023/12/12 03:42:10;;;;;;;47.45;7.00;;;;;;;;;;4998378;28;20076;-55
2023/12/12 03:44:36;;;;;;;38.17;6.45;;;;;;;;;;4996112;28;20060;-54
2023/12/12 03:47:02;;;;;;;48.53;7.30;;;;;;;;;;4996101;28;20038;-54
2023/12/12 03:49:27;;;;;;;51.25;7.18;;;;;;;;;;4997199;28;20042;-56
2023/12/12 03:51:53;;;;;;;52.90;7.18;;;;;;;;;;4997349;28;20056;-57
2023/12/12 03:54:19;;;;;;;38.60;6.20;;;;;;;;;;4996075;28;20034;-58
2023/12/12 03:56:45;;;;;;;41.10;6.53;;;;;;;;;;4998576;28;20073;-57
2023/12/12 03:59:11;;;;;;;42.00;6.43;;;;;;;;;;4995721;28;20045;-56
2023/12/12 04:01:37;;;;;;;39.92;6.18;;;;;;;;;;4996252;28;20648;-55
2023/12/12 04:04:03;;;;;;;41.60;7.03;;;;;;;;;;4993788;28;20494;-56
2023/12/12 04:06:29;;;;;;;42.60;5.85;;;;;;;;;;4997290;28;20044;-53
2023/12/12 04:08:55;;;;;;;42.22;6.75;;;;;;;;;;4996557;28;20366;-56
2023/12/12 04:11:21;;;;;;;38.13;5.85;;;;;;;;;;4996432;28;20390;-56
2023/12/12 04:13:47;;;;;;;50.45;7.47;;;;;;;;;;4995895;28;20125;-52
2023/12/12 04:16:13;;;;;;;30.10;5.90;;;;;;;;;;4990067;28;20623;-55
2023/12/12 04:18:39;;;;;;;30.05;5.30;;;;;;;;;;4996990;28;20186;-54
2023/12/12 04:21:05;;;;;;;30.92;5.35;;;;;;;;;;4995952;28;20041;-55
2023/12/12 04:23:31;;;;;;;31.13;5.80;;;;;;;;;;4996603;28;20521;-55
2023/12/12 04:25:57;;;;;;;32.67;5.45;;;;;;;;;;4993715;28;20100;-53
2023/12/12 04:28:23;;;;;;;35.30;5.60;;;;;;;;;;4997070;28;20038;-54
2023/12/12 04:30:49;;;;;;;38.08;5.88;;;;;;;;;;4994900;28;20045;-56
2023/12/12 04:33:15;;;;;;;31.35;5.75;;;;;;;;;;4999687;28;20118;-54
2023/12/12 04:35:41;;;;;;;33.50;6.35;;;;;;;;;;4996038;28;20048;-55
2023/12/12 04:38:07;;;;;;;39.10;6.20;;;;;;;;;;4998971;28;20601;-55
2023/12/12 04:40:33;;;;;;;32.72;6.18;;;;;;;;;;5000271;28;20038;-55
2023/12/12 04:42:59;;;;;;;33.75;6.85;;;;;;;;;;5001080;28;20126;-53
2023/12/12 04:45:25;;;;;;;45.20;7.28;;;;;;;;;;4998252;28;20098;-54
2023/12/12 04:47:51;;;;;;;29.60;6.43;;;;;;;;;;4982687;28;20057;-55
2023/12/12 04:50:17;;;;;;;36.53;6.10;;;;;;;;;;4999404;28;20018;-56
2023/12/12 04:52:43;;;;;;;38.00;7.03;;;;;;;;;;5001516;28;20034;-55
2023/12/12 04:55:10;;;;;;;30.45;5.88;;;;;;;;;;4997720;28;20030;-55
2023/12/12 04:57:36;;;;;;;37.33;6.68;;;;;;;;;;4995788;28;20041;-56
2023/12/12 05:00:03;;;;;;;32.67;5.70;;;;;;;;;;4998273;28;20034;-54
2023/12/12 05:02:29;;;;;;;29.25;6.47;;;;;;;;;;4999289;28;20053;-55
2023/12/12 05:04:54;;;;;;;32.10;6.40;;;;;;;;;;4999474;28;20502;-56
2023/12/12 05:07:20;;;;;;;31.45;5.93;;;;;;;;;;4999473;28;20565;-55
2023/12/12 05:09:46;;;;;;;31.17;6.25;;;;;;;;;;4997818;28;20493;-55
2023/12/12 05:12:12;;;;;;;37.15;6.68;;;;;;;;;;4999085;28;20052;-55
2023/12/12 05:14:38;;;;;;;33.03;6.03;;;;;;;;;;4999276;28;20038;-54
2023/12/12 05:17:05;;;;;;;28.42;5.88;;;;;;;;;;4997955;28;20066;-54
2023/12/12 05:19:31;;;;;;;42.75;7.32;;;;;;;;;;5001362;28;20045;-55
2023/12/12 05:21:57;;;;;;;41.20;6.93;;;;;;;;;;4999796;28;20399;-54
2023/12/12 05:24:23;;;;;;;35.78;6.65;;;;;;;;;;4998132;28;20134;-56
2023/12/12 05:26:49;;;;;;;38.47;6.85;;;;;;;;;;4999070;28;20064;-54
2023/12/12 05:29:15;;;;;;;34.50;7.10;;;;;;;;;;4998458;28;20156;-56
2023/12/12 05:31:42;;;;;;;32.97;6.18;;;;;;;;;;4994071;28;20120;-55
2023/12/12 05:34:07;;;;;;;38.70;6.35;;;;;;;;;;4997680;28;20041;-55
2023/12/12 05:36:33;;;;;;;41.33;6.90;;;;;;;;;;4999354;28;20148;-55
2023/12/12 05:39:00;;;;;;;36.17;6.05;;;;;;;;;;4997870;28;20133;-54
2023/12/12 05:41:26;;;;;;;31.15;6.03;;;;;;;;;;4978779;28;20030;-56
2023/12/12 05:43:52;;;;;;;33.33;5.93;;;;;;;;;;4998771;28;20136;-54
2023/12/12 05:46:18;;;;;;;30.55;5.97;;;;;;;;;;4995840;28;20523;-53
2023/12/12 05:48:44;;;;;;;29.50;6.90;;;;;;;;;;4999353;28;20053;-55
2023/12/12 05:51:10;;;;;;;37.53;6.30;;;;;;;;;;4998166;28;20069;-57
2023/12/12 05:53:36;;;;;;;34.30;6.60;;;;;;;;;;4997524;28;20034;-55
2023/12/12 05:56:02;;;;;;;39.65;6.05;;;;;;;;;;4997330;28;20056;-55
2023/12/12 05:58:28;;;;;;;29.98;6.50;;;;;;;;;;4999716;28;20045;-52
2023/12/12 06:00:54;;;;;;;36.75;6.28;;;;;;;;;;4997333;28;20060;-55
2023/12/12 06:03:20;;;;;;;40.90;6.47;;;;;;;;;;4996636;28;20120;-55
2023/12/12 06:05:46;;;;;;;39.17;6.25;;;;;;;;;;4999854;28;20084;-54
2023/12/12 06:08:12;;;;;;;36.67;6.97;;;;;;;;;;4998171;28;20486;-54
2023/12/12 06:10:38;;;;;;;38.58;6.70;;;;;;;;;;4999435;28;20135;-55
2023/12/12 06:13:04;;;;;;;46.17;7.28;;;;;;;;;;4998691;28;20065;-56
2023/12/12 06:15:30;;;;;;;36.92;6.75;;;;;;;;;;4991676;28;20152;-53
2023/12/12 06:17:56;;;;;;;32.40;6.63;;;;;;;;;;4998672;28;20041;-55
2023/12/12 06:20:23;;;;;;;34.35;7.18;;;;;;;;;;4997276;28;20029;-54
2023/12/12 06:22:49;;;;;;;30.30;6.72;;;;;;;;;;4999960;28;20037;-55
2023/12/12 06:25:15;;;;;;;44.42;6.57;;;;;;;;;;4996737;28;20042;-55
2023/12/12 06:27:41;;;;;;;39.83;7.00;;;;;;;;;;4999436;28;20040;-55
2023/12/12 06:30:08;;;;;;;36.95;6.82;;;;;;;;;;4995853;28;20171;-55
2023/12/12 06:32:34;;;;;;;36.67;6.75;;;;;;;;;;4997811;28;20049;-53
2023/12/12 06:35:00;;;;;;;29.05;6.05;;;;;;;;;;4998040;28;20045;-56
2023/12/12 06:37:26;;;;;;;42.53;7.03;;;;;;;;;;4998216;28;20314;-55
2023/12/12 06:39:52;;;;;;;35.97;6.53;;;;;;;;;;4998725;28;20521;-55
2023/12/12 06:42:18;;;;;;;41.42;6.57;;;;;;;;;;4996835;28;20238;-55
2023/12/12 06:44:44;;;;;;;31.95;6.40;;;;;;;;;;4997013;28;20124;-55
2023/12/12 06:47:10;;;;;;;31.50;6.25;;;;;;;;;;4995180;28;20056;-55
2023/12/12 06:49:36;;;;;;;50.28;7.30;;;;;;;;;;4997580;28;20049;-56
2023/12/12 06:52:03;;;;;;;36.45;6.90;;;;;;;;;;4996811;28;20037;-55
2023/12/12 06:54:29;;;;;;;38.50;7.30;;;;;;;;;;4993966;28;20034;-53
2023/12/12 06:56:55;;;;;;;39.67;7.45;;;;;;;;;;4998265;28;20088;-54
2023/12/12 06:59:21;;;;;;;40.72;6.00;;;;;;;;;;4995788;28;20120;-55
2023/12/12 07:01:47;;;;;;;40.45;6.13;;;;;;;;;;4995950;28;20578;-54
2023/12/12 07:04:13;;;;;;;49.72;8.38;;;;;;;;;;4995726;28;20069;-53
2023/12/12 07:06:40;;;;;;;48.20;7.38;;;;;;;;;;4997811;28;20767;-55
2023/12/12 07:09:06;;;;;;;33.80;6.28;;;;;;;;;;4995927;28;20128;-55
2023/12/12 07:11:32;;;;;;;47.38;7.30;;;;;;;;;;5000608;28;20056;-55
2023/12/12 07:13:57;;;;;;;38.60;6.50;;;;;;;;;;4997175;28;20034;-54
2023/12/12 07:16:23;;;;;;;36.83;7.45;;;;;;;;;;4994122;28;20072;-56
2023/12/12 07:18:50;;;;;;;30.85;6.80;;;;;;;;;;4997058;28;20129;-54
2023/12/12 07:21:16;;;;;;;33.00;7.15;;;;;;;;;;5000835;28;20034;-56
2023/12/12 07:23:42;;;;;;;40.70;6.72;;;;;;;;;;4997354;28;20541;-56
2023/12/12 07:26:08;;;;;;;39.33;6.15;;;;;;;;;;4995732;28;20026;-57
2023/12/12 07:28:34;;;;;;;35.97;5.85;;;;;;;;;;4996374;28;20038;-54
2023/12/12 07:31:02;;;;;;;30.95;5.90;;;;;;;;;;4996540;28;20497;-55
2023/12/12 07:33:28;;;;;;;37.35;5.60;;;;;;;;;;4994479;28;20046;-54
2023/12/12 07:35:54;;;;;;;36.20;5.72;;;;;;;;;;4997188;28;20057;-57
2023/12/12 07:38:20;;;;;;;39.47;5.45;;;;;;;;;;4996897;28;20362;-55
2023/12/12 07:40:46;;;;;;;34.17;6.18;;;;;;;;;;4996362;28;20096;-55
2023/12/12 07:43:12;;;;;;;39.15;6.13;;;;;;;;;;4994986;28;20034;-55
2023/12/12 07:45:38;;;;;;;36.88;7.18;;;;;;;;;;4995572;28;20339;-55
2023/12/12 07:48:04;;;;;;;35.63;6.18;;;;;;;;;;4992493;28;20038;-56
2023/12/12 07:50:31;;;;;;;31.95;5.55;;;;;;;;;;4996635;28;20077;-56
2023/12/12 07:52:58;;;;;;;36.25;5.85;;;;;;;;;;4997517;28;20533;-55
2023/12/12 07:55:24;;;;;;;37.72;5.72;;;;;;;;;;4998350;28;20025;-55
2023/12/12 07:57:50;;;;;;;28.10;5.75;;;;;;;;;;4997211;28;20575;-56
2023/12/12 08:00:16;;;;;;;34.03;6.03;;;;;;;;;;4994987;28;20468;-56
2023/12/12 08:02:42;;;;;;;40.83;5.78;;;;;;;;;;4995884;28;20034;-56
2023/12/12 08:05:08;;;;;;;30.38;5.47;;;;;;;;;;4983752;28;20560;-56
2023/12/12 08:07:35;;;;;;;39.08;6.22;;;;;;;;;;5000265;28;20059;-57
2023/12/12 08:10:01;;;;;;;28.92;5.13;;;;;;;;;;5000702;28;20403;-56
2023/12/12 08:12:26;;;;;;;29.33;5.72;;;;;;;;;;5000679;28;20619;-56
2023/12/12 08:14:53;;;;;;;28.20;5.68;;;;;;;;;;4999538;28;20061;-55
2023/12/12 08:17:19;;;;;;;35.63;5.85;;;;;;;;;;4996529;28;20034;-54
2023/12/12 08:19:45;;;;;;;26.40;6.10;;;;;;;;;;5000195;28;20037;-56
2023/12/12 08:22:12;;;;;;;30.67;6.50;;;;;;;;;;4999628;28;20127;-56
2023/12/12 08:24:38;;;;;;;32.85;6.25;;;;;;;;;;5000530;28;20054;-55
2023/12/12 08:27:04;;;;;;;29.92;5.75;;;;;;;;;;4998342;28;20446;-56
2023/12/12 08:29:30;;;;;;;42.35;6.78;;;;;;;;;;5000388;28;20033;-55
2023/12/12 08:31:56;;;;;;;29.30;6.28;;;;;;;;;;5001555;28;20104;-54
2023/12/12 08:34:23;;;;;;;27.60;6.80;;;;;;;;;;4999096;28;20041;-56
2023/12/12 08:36:50;;;;;;;42.30;7.60;;;;;;;;;;5000519;28;20046;-55
2023/12/12 08:39:16;;;;;;;37.65;6.15;;;;;;;;;;5000614;28;20282;-54
2023/12/12 08:41:42;;;;;;;31.98;5.85;;;;;;;;;;5001716;28;20076;-56
2023/12/12 08:44:08;;;;;;;26.02;5.57;;;;;;;;;;4999080;28;20030;-56
2023/12/12 08:46:34;;;;;;;33.15;6.85;;;;;;;;;;4999360;28;20057;-57
2023/12/12 08:49:00;;;;;;;27.77;6.82;;;;;;;;;;4994200;28;20039;-57
2023/12/12 08:51:26;;;;;;;32.97;6.63;;;;;;;;;;4999057;28;20080;-56
2023/12/12 08:53:53;;;;;;;39.70;6.85;;;;;;;;;;5000530;28;20391;-55
2023/12/12 08:56:19;;;;;;;36.83;6.03;;;;;;;;;;4999752;28;20599;-55
2023/12/12 08:58:46;;;;;;;40.85;6.68;;;;;;;;;;4999818;28;20165;-55
2023/12/12 09:01:12;;;;;;;31.50;6.82;;;;;;;;;;4991330;28;20056;-59
2023/12/12 09:03:38;;;;;;;32.63;6.97;;;;;;;;;;4997510;28;20041;-58
2023/12/12 09:06:04;;;;;;;29.92;6.70;;;;;;;;;;4999472;28;20473;-59
2023/12/12 09:08:30;;;;;;;34.08;6.55;;;;;;;;;;5000294;28;20107;-59
2023/12/12 09:10:56;;;;;;;35.17;6.25;;;;;;;;;;4998591;28;20537;-59
2023/12/12 09:13:22;;;;;;;40.78;6.93;;;;;;;;;;5000357;28;20049;-59
2023/12/12 09:15:48;;;;;;;33.35;6.97;;;;;;;;;;4996932;28;20038;-58
2023/12/12 09:18:14;;;;;;;24.63;6.28;;;;;;;;;;4997875;28;20038;-58
2023/12/12 09:20:40;;;;;;;37.67;6.45;;;;;;;;;;4998446;28;20583;-59
2023/12/12 09:23:06;;;;;;;34.15;6.10;;;;;;;;;;4995433;28;20284;-57
2023/12/12 09:25:32;;;;;;;38.65;6.38;;;;;;;;;;4998467;28;20056;-60
2023/12/12 09:27:58;;;;;;;28.88;6.38;;;;;;;;;;4999107;28;20136;-59
2023/12/12 09:30:24;;;;;;;33.78;7.00;;;;;;;;;;4994844;28;20050;-58
2023/12/12 09:32:50;;;;;;;33.28;6.78;;;;;;;;;;4994827;28;20338;-59
2023/12/12 09:35:16;;;;;;;36.17;6.55;;;;;;;;;;4991251;28;20410;-59
2023/12/12 09:37:42;;;;;;;34.45;6.65;;;;;;;;;;4985612;28;20046;-57
2023/12/12 09:40:12;;;;;;;28.13;6.60;;;;;;;;;;4997142;28;20457;-59
2023/12/12 09:42:40;;;;;;;21.63;6.15;;;;;;;;;;4997224;28;20140;-55
2023/12/12 09:45:13;;;;;;;32.97;7.20;;;;;;;;;;4991636;28;20041;-57
2023/12/12 09:47:40;;;;;;;;;;;;;;;;;;4991412;28;20045;-57
2023/12/12 09:50:06;;;;;;;28.48;6.75;;;;;;;;;;4991635;28;19921;-56
2023/12/12 09:52:34;;;;;;;29.90;6.40;;;;;;;;;;4998960;28;20045;-56
2023/12/12 09:55:00;;;;;;;24.55;6.53;;;;;;;;;;4993393;28;20042;-56
2023/12/12 09:57:30;;;;;;;34.70;6.22;;;;;;;;;;4997093;28;20341;-57
2023/12/12 09:59:58;;;;;;;40.08;7.00;;;;;;;;;;4995917;28;20072;-56
2023/12/12 10:02:26;;;;;;;23.45;6.05;;;;;;;;;;4992942;28;20520;-56
2023/12/12 10:04:53;;;;;;;28.63;6.10;;;;;;;;;;4989634;28;20037;-54
2023/12/12 10:07:20;;;;;;;31.13;5.88;;;;;;;;;;4993571;28;20033;-55
2023/12/12 10:09:48;;;;;;;32.40;6.25;;;;;;;;;;4991652;28;20037;-58
2023/12/12 10:12:14;;;;;;;27.17;5.88;;;;;;;;;;4996295;28;20022;-58
2023/12/12 10:14:41;;;;;;;28.30;5.93;;;;;;;;;;4996758;28;20060;-58
2023/12/12 10:17:10;;;;;;;29.92;5.40;;;;;;;;;;4986811;28;20210;-55
2023/12/12 10:19:39;;;;;;;25.52;5.25;;;;;;;;;;4994700;28;20033;-57
2023/12/12 10:22:06;;;;;;;32.60;6.15;;;;;;;;;;4995779;28;20332;-56
2023/12/12 10:24:32;;;;;;;23.40;5.60;;;;;;;;;;4997466;28;20045;-55
2023/12/12 10:26:58;;;;;;;29.58;5.78;;;;;;;;;;4994378;28;20096;-56
2023/12/12 10:29:24;;;;;;;23.33;5.68;;;;;;;;;;4967834;28;20096;-56
2023/12/12 10:31:51;;;;;;;23.02;5.05;;;;;;;;;;4997114;28;20038;-57
2023/12/12 10:34:18;;;;;;;22.55;5.03;;;;;;;;;;4990114;28;20560;-58
2023/12/12 10:36:47;;;;;;;23.58;5.20;;;;;;;;;;4990706;28;20029;-57
2023/12/12 10:39:14;;;;;;;25.70;5.55;;;;;;;;;;4992399;28;20150;-57
2023/12/12 10:41:40;;;;;;;22.17;4.82;;;;;;;;;;4998082;28;20125;-60
2023/12/12 10:44:08;;;;;;;22.90;4.82;;;;;;;;;;4995828;28;20034;-59
2023/12/12 10:46:39;;;;;;;19.55;5.05;;;;;;;;;;4996959;28;20034;-59
2023/12/12 10:49:06;;;;;;;23.75;5.18;;;;;;;;;;4975363;28;20124;-58
2023/12/12 10:51:32;;;;;;;21.80;5.43;;;;;;;;;;4992627;28;20033;-57
2023/12/12 10:53:59;;;;;;;23.30;4.88;;;;;;;;;;4996079;28;20489;-57
2023/12/12 10:56:28;;;;;;;22.17;5.10;;;;;;;;;;4990303;28;20165;-57
2023/12/12 10:58:54;;;;;;;20.08;5.28;;;;;;;;;;4993360;28;20030;-57
2023/12/12 11:01:21;;;;;;;22.98;5.10;;;;;;;;;;4988027;28;20061;-58
2023/12/12 11:03:50;;;;;;;21.25;4.60;;;;;;;;;;4995956;28;20033;-58
2023/12/12 11:06:18;;;;;;;19.40;5.00;;;;;;;;;;4994810;28;20433;-58
2023/12/12 11:08:46;;;;;;;24.15;5.70;;;;;;;;;;4997319;28;20056;-58
2023/12/12 11:11:13;;;;;;;20.20;5.50;;;;;;;;;;4994764;28;20037;-58
2023/12/12 11:13:40;;;;;;;21.73;4.70;;;;;;;;;;4996511;28;20037;-55
2023/12/12 11:16:07;;;;;;;23.65;5.78;;;;;;;;;;4994145;28;20360;-57
2023/12/12 11:18:37;;;;;;;18.92;4.22;;;;;;;;;;4997563;28;20049;-56
2023/12/12 11:21:04;;;;;;;18.50;4.45;;;;;;;;;;4997807;28;20034;-57
2023/12/12 11:23:54;;;;;;;26.50;5.55;;;;;;;;;;4993018;28;20161;-57
2023/12/12 11:26:25;;;;;;;20.33;4.60;;;;;;;;;;4991910;28;20195;-58
2023/12/12 11:28:52;;;;;;;23.35;4.90;;;;;;;;;;4996534;28;20564;-57
2023/12/12 11:31:22;;;;;;;18.95;4.18;;;;;;;;;;4994078;28;20486;-58
2023/12/12 11:34:02;;;;;;;23.50;4.82;;;;;;;;;;4997011;28;20034;-56
2023/12/12 11:36:29;;;;;;;23.77;5.00;;;;;;;;;;4994655;28;20128;-58
2023/12/12 11:38:55;;;;;;;18.40;4.57;;;;;;;;;;4997615;28;20261;-57
2023/12/12 11:41:21;;;;;;;20.05;4.65;;;;;;;;;;5002230;28;20037;-57
2023/12/12 11:43:47;;;;;;;18.35;3.88;;;;;;;;;;4992331;28;20251;-57
2023/12/12 11:46:20;;;;;;;22.02;4.45;;;;;;;;;;4979195;28;20040;-56
2023/12/12 11:48:47;;;;;;;20.48;4.85;;;;;;;;;;5000147;28;20045;-56
2023/12/12 11:51:34;;;;;;;15.75;3.83;;;;;;;;;;4998163;28;20030;-57
2023/12/12 11:54:09;;;;;;;17.08;4.85;;;;;;;;;;4998152;28;20069;-57
2023/12/12 11:56:35;;;;;;;16.45;4.47;;;;;;;;;;4996544;28;20460;-58
2023/12/12 11:59:01;;;;;;;17.65;4.50;;;;;;;;;;4995549;28;20041;-59
2023/12/12 12:01:27;;;;;;;18.45;4.38;;;;;;;;;;4999863;28;20064;-59
2023/12/12 12:03:53;;;;;;;27.92;4.60;;;;;;;;;;4992296;28;20278;-59
2023/12/12 12:06:20;;;;;;;17.27;4.50;;;;;;;;;;5000512;28;20105;-59
2023/12/12 12:08:49;;;;;;;23.83;5.05;;;;;;;;;;4996241;28;20026;-59
2023/12/12 12:11:15;;;;;;;21.65;4.70;;;;;;;;;;4991525;28;20496;-60
2023/12/12 12:13:41;;;;;;;16.38;4.88;;;;;;;;;;4996922;28;20545;-58
2023/12/12 12:16:11;;;;;;;18.05;4.97;;;;;;;;;;4993401;28;20489;-55
2023/12/12 12:18:37;;;;;;;23.00;5.05;;;;;;;;;;4997147;28;20049;-57
2023/12/12 12:21:04;;;;;;;17.42;3.33;;;;;;;;;;4994642;28;20037;-57
2023/12/12 12:23:36;;;;;;;18.67;3.78;;;;;;;;;;4991223;28;20042;-56
2023/12/12 12:26:02;;;;;;;14.57;3.35;;;;;;;;;;4997042;28;20232;-58
2023/12/12 12:28:32;;;;;;;14.90;3.95;;;;;;;;;;5001809;28;20052;-56
2023/12/12 12:30:58;;;;;;;16.58;4.18;;;;;;;;;;4992184;28;20437;-56
2023/12/12 12:33:31;;;;;;;21.10;4.88;;;;;;;;;;4996405;28;20491;-58
2023/12/12 12:35:57;;;;;;;18.33;4.38;;;;;;;;;;4995495;28;20353;-56
2023/12/12 12:38:31;;;;;;;19.70;4.28;;;;;;;;;;4989492;28;20128;-56
2023/12/12 12:40:57;;;;;;;15.93;4.05;;;;;;;;;;4992360;28;20048;-57
2023/12/12 12:43:23;;;;;;;14.57;4.57;;;;;;;;;;4990868;28;20038;-57
2023/12/12 12:45:50;;;;;;;12.23;4.00;;;;;;;;;;4992962;28;20549;-58
2023/12/12 12:48:16;;;;;;;15.52;5.00;;;;;;;;;;4990735;28;20121;-57
2023/12/12 12:50:42;;;;;;;13.65;4.93;;;;;;;;;;4996196;28;20025;-56
2023/12/12 12:53:09;;;;;;;17.83;4.30;;;;;;;;;;4994701;28;20037;-57
2023/12/12 12:55:35;;;;;;;16.85;5.07;;;;;;;;;;5001025;28;20518;-58
2023/12/12 12:58:01;;;;;;;16.23;5.95;;;;;;;;;;4993706;28;20606;-58
2023/12/12 13:00:27;;;;;;;18.30;5.90;;;;;;;;;;4991602;28;20053;-57
2023/12/12 13:02:55;;;;;;;20.00;6.72;;;;;;;;;;4970738;28;20037;-60
2023/12/12 13:05:21;;;;;;;23.40;7.07;;;;;;;;;;4993308;28;20042;-57
2023/12/12 13:07:47;;;;;;;16.98;6.05;;;;;;;;;;4996806;28;20037;-60
2023/12/12 13:10:15;;;;;;;17.85;6.72;;;;;;;;;;4990844;28;20229;-59
2023/12/12 13:12:41;;;;;;;21.10;6.13;;;;;;;;;;4989696;28;20030;-58
2023/12/12 13:15:08;;;;;;;20.92;6.55;;;;;;;;;;4991620;28;20041;-60
2023/12/12 13:17:34;;;;;;;23.00;6.18;;;;;;;;;;4996037;28;20041;-59
2023/12/12 13:20:03;;;;;;;25.30;6.50;;;;;;;;;;4989794;28;20045;-59
2023/12/12 13:22:29;;;;;;;20.58;6.75;;;;;;;;;;4997312;28;20516;-57
2023/12/12 13:24:57;;;;;;;23.15;6.57;;;;;;;;;;4993692;28;20045;-58
2023/12/12 13:27:23;;;;;;;25.92;7.00;;;;;;;;;;4992062;28;20060;-56
2023/12/12 13:29:49;;;;;;;23.20;5.63;;;;;;;;;;4994870;28;20108;-57
2023/12/12 13:32:15;;;;;;;23.80;6.15;;;;;;;;;;4996029;28;20151;-56
2023/12/12 13:34:41;;;;;;;22.23;5.75;;;;;;;;;;4997044;28;20135;-57
2023/12/12 13:37:07;;;;;;;19.15;5.90;;;;;;;;;;4988469;28;20148;-57
2023/12/12 13:39:34;;;;;;;19.58;6.22;;;;;;;;;;4999986;28;20042;-57
2023/12/12 13:42:00;;;;;;;19.83;6.45;;;;;;;;;;4998053;28;20331;-56
2023/12/12 13:44:26;;;;;;;22.70;6.43;;;;;;;;;;4989824;28;20607;-56
2023/12/12 13:46:52;;;;;;;15.80;6.40;;;;;;;;;;4992700;28;20084;-57
2023/12/12 13:49:18;;;;;;;23.35;7.65;;;;;;;;;;4990648;28;20087;-57
2023/12/12 13:51:44;;;;;;;19.77;6.78;;;;;;;;;;4994102;28;20170;-57
2023/12/12 13:54:10;;;;;;;28.60;7.30;;;;;;;;;;4996899;28;20261;-59
2023/12/12 13:56:36;;;;;;;24.63;7.13;;;;;;;;;;4993422;28;20044;-59
2023/12/12 13:59:02;;;;;;;25.23;7.68;;;;;;;;;;4988665;28;20033;-59
2023/12/12 14:01:28;;;;;;;23.02;7.43;;;;;;;;;;4988755;28;20114;-59
2023/12/12 14:03:54;;;;;;;29.95;7.75;;;;;;;;;;4995465;28;20040;-57
2023/12/12 14:06:20;;;;;;;23.70;7.65;;;;;;;;;;4996334;28;20533;-57
2023/12/12 14:08:46;;;;;;;25.88;7.53;;;;;;;;;;4998332;28;20040;-56
2023/12/12 14:11:13;;;;;;;22.67;7.32;;;;;;;;;;4996502;28;20037;-57
2023/12/12 14:13:39;;;;;;;23.73;8.30;;;;;;;;;;4993767;28;20140;-60
2023/12/12 14:16:05;;;;;;;26.88;7.60;;;;;;;;;;4978323;28;20166;-58
2023/12/12 14:18:31;;;;;;;22.50;7.35;;;;;;;;;;4996931;28;20017;-59
2023/12/12 14:20:57;;;;;;;30.42;7.47;;;;;;;;;;4991565;28;20055;-58
2023/12/12 14:23:24;;;;;;;28.95;8.63;;;;;;;;;;4992517;28;20674;-60
2023/12/12 14:25:50;;;;;;;26.40;8.52;;;;;;;;;;4993369;28;20069;-57